Time;durP1;ratioP1;P1;durP2;ratioP2;P2;SDS_P1;SDS_P2;PMS_P1;PMS_P2;Temp;Humidity;BMP_temperature;BMP_pressure;BME280_temperature;BME280_humidity;BME280_pressure;Samples;Min_cycle;Max_cycle;Signal;HPM_P1;HPM_P2
2023/06/20 00:00:49;;;;;;;3.40;3.05;;;;;;;;;;5073286;28;20024;-78
2023/06/20 00:03:15;;;;;;;4.18;2.90;;;;;;;;;;5073300;28;20368;-78
2023/06/20 00:05:41;;;;;;;4.63;3.10;;;;;;;;;;5055349;28;20060;-78
2023/06/20 00:08:06;;;;;;;3.95;3.30;;;;;;;;;;5038585;28;20056;-78
2023/06/20 00:10:32;;;;;;;4.82;2.95;;;;;;;;;;5055044;28;20079;-78
2023/06/20 00:12:57;;;;;;;3.08;2.53;;;;;;;;;;5055161;28;20032;-77
2023/06/20 00:15:25;;;;;;;3.58;3.03;;;;;;;;;;5038492;28;20047;-78
2023/06/20 00:17:52;;;;;;;3.35;3.05;;;;;;;;;;5073391;28;20028;-78
2023/06/20 00:20:18;;;;;;;4.97;2.95;;;;;;;;;;5073157;28;20421;-78
2023/06/20 00:22:43;;;;;;;3.63;3.17;;;;;;;;;;5072960;28;20040;-78
2023/06/20 00:25:09;;;;;;;3.22;2.85;;;;;;;;;;5055188;28;20036;-78
2023/06/20 00:27:34;;;;;;;4.78;2.80;;;;;;;;;;5073303;28;20036;-78
2023/06/20 00:30:00;;;;;;;2.70;2.50;;;;;;;;;;5038819;28;20518;-78
2023/06/20 00:32:25;;;;;;;3.67;3.00;;;;;;;;;;5038358;28;20028;-78
2023/06/20 00:34:51;;;;;;;4.72;3.00;;;;;;;;;;5057167;28;20028;-78
2023/06/20 00:37:16;;;;;;;3.47;2.90;;;;;;;;;;5042648;28;20029;-78
2023/06/20 00:39:42;;;;;;;4.07;2.85;;;;;;;;;;5076896;28;20029;-78
2023/06/20 00:42:23;;;;;;;5.47;2.90;;;;;;;;;;5059040;28;20372;-78
2023/06/20 00:44:48;;;;;;;3.90;2.92;;;;;;;;;;5059142;28;20027;-78
2023/06/20 00:47:16;;;;;;;4.78;2.80;;;;;;;;;;5059027;28;20238;-78
2023/06/20 00:49:42;;;;;;;4.75;3.17;;;;;;;;;;5059140;28;20035;-78
2023/06/20 00:52:08;;;;;;;3.47;2.90;;;;;;;;;;5042245;28;20097;-78
2023/06/20 00:54:34;;;;;;;5.13;3.08;;;;;;;;;;5076706;28;20028;-80
2023/06/20 00:56:59;;;;;;;4.50;2.67;;;;;;;;;;5058657;28;20391;-79
2023/06/20 00:59:25;;;;;;;3.97;2.90;;;;;;;;;;5076815;28;20074;-79
2023/06/20 01:01:51;;;;;;;3.92;3.20;;;;;;;;;;5058604;28;20025;-79
2023/06/20 01:04:17;;;;;;;6.78;3.40;;;;;;;;;;5076824;28;20066;-78
2023/06/20 01:06:46;;;;;;;2.97;2.63;;;;;;;;;;5058692;28;20197;-79
2023/06/20 01:09:22;;;;;;;5.95;3.22;;;;;;;;;;5076204;28;20143;-78
2023/06/20 01:11:56;;;;;;;4.93;2.92;;;;;;;;;;5076182;28;20044;-78
2023/06/20 01:14:33;;;;;;;4.20;3.00;;;;;;;;;;5058201;28;20042;-78
2023/06/20 01:17:02;;;;;;;5.10;3.10;;;;;;;;;;5058459;28;20151;-77
2023/06/20 01:20:12;;;;;;;4.07;3.20;;;;;;;;;;5076047;28;20060;-78
2023/06/20 01:23:03;;;;;;;4.25;2.90;;;;;;;;;;5075786;28;20028;-79
2023/06/20 01:26:02;;;;;;;2.90;2.70;;;;;;;;;;5058441;28;20012;-79
2023/06/20 01:28:50;;;;;;;3.97;3.40;;;;;;;;;;5058050;28;20020;-79
2023/06/20 01:31:24;;;;;;;2.95;2.65;;;;;;;;;;5058155;28;20025;-78
2023/06/20 01:34:00;;;;;;;4.07;2.90;;;;;;;;;;5057860;28;20479;-79
2023/06/20 01:36:31;;;;;;;5.60;3.25;;;;;;;;;;5076121;28;20033;-79
2023/06/20 01:38:59;;;;;;;4.53;2.92;;;;;;;;;;5041216;28;20021;-79
2023/06/20 01:41:25;;;;;;;3.50;2.67;;;;;;;;;;5058095;28;20120;-78
2023/06/20 01:43:51;;;;;;;3.53;2.90;;;;;;;;;;5075606;28;20522;-78
2023/06/20 01:46:18;;;;;;;2.90;2.70;;;;;;;;;;5039815;28;20039;-78
2023/06/20 01:48:44;;;;;;;3.88;3.10;;;;;;;;;;5058105;28;20044;-78
2023/06/20 01:51:10;;;;;;;3.65;2.80;;;;;;;;;;5057836;28;20128;-78
2023/06/20 01:53:37;;;;;;;3.65;3.00;;;;;;;;;;5075560;28;20047;-79
2023/06/20 01:56:03;;;;;;;3.55;2.78;;;;;;;;;;5057444;28;20028;-78
2023/06/20 01:58:30;;;;;;;3.83;2.72;;;;;;;;;;5075649;28;20038;-78
2023/06/20 02:00:57;;;;;;;3.38;3.08;;;;;;;;;;5057527;28;20056;-79
2023/06/20 02:03:24;;;;;;;3.63;2.80;;;;;;;;;;5075628;28;20077;-79
2023/06/20 02:05:50;;;;;;;6.07;3.13;;;;;;;;;;5057570;28;20376;-79
2023/06/20 02:08:16;;;;;;;3.63;2.85;;;;;;;;;;5057403;28;20095;-79
2023/06/20 02:10:42;;;;;;;3.17;2.70;;;;;;;;;;5075123;28;20472;-79
2023/06/20 02:13:08;;;;;;;3.30;3.00;;;;;;;;;;5057335;28;20043;-79
2023/06/20 02:15:34;;;;;;;4.55;3.10;;;;;;;;;;5057650;28;20082;-79
2023/06/20 02:18:02;;;;;;;4.18;3.00;;;;;;;;;;5041220;28;20036;-79
2023/06/20 02:20:28;;;;;;;3.45;3.03;;;;;;;;;;5057454;28;20103;-78
2023/06/20 02:22:55;;;;;;;3.83;2.90;;;;;;;;;;5074988;28;20159;-78
2023/06/20 02:25:23;;;;;;;3.35;2.55;;;;;;;;;;5074895;28;20031;-79
2023/06/20 02:27:51;;;;;;;4.25;2.95;;;;;;;;;;5057193;28;20382;-79
2023/06/20 02:30:18;;;;;;;3.67;2.90;;;;;;;;;;5057495;28;20036;-78
2023/06/20 02:32:44;;;;;;;3.85;2.92;;;;;;;;;;5075026;28;20028;-78
2023/06/20 02:35:10;;;;;;;3.42;2.90;;;;;;;;;;5057214;28;20052;-79
2023/06/20 02:37:37;;;;;;;3.00;2.75;;;;;;;;;;5056933;28;20028;-78
2023/06/20 02:40:05;;;;;;;3.58;3.03;;;;;;;;;;5040050;28;20495;-78
2023/06/20 02:42:31;;;;;;;5.43;2.90;;;;;;;;;;5057386;28;20522;-78
2023/06/20 02:44:56;;;;;;;3.95;3.05;;;;;;;;;;5056629;28;20091;-78
2023/06/20 02:47:33;;;;;;;3.40;2.90;;;;;;;;;;5074563;28;20035;-78
2023/06/20 02:50:12;;;;;;;4.30;3.00;;;;;;;;;;5056703;28;20376;-78
2023/06/20 02:52:41;;;;;;;4.00;2.90;;;;;;;;;;5037067;28;20049;-78
2023/06/20 02:55:34;;;;;;;3.97;3.15;;;;;;;;;;5036903;28;20379;-78
2023/06/20 02:58:01;;;;;;;3.38;2.90;;;;;;;;;;5054064;28;20068;-78
2023/06/20 03:00:27;;;;;;;3.80;2.90;;;;;;;;;;5036548;28;20031;-79
2023/06/20 03:03:21;;;;;;;4.82;2.92;;;;;;;;;;5036743;28;20020;-79
2023/06/20 03:05:47;;;;;;;3.95;2.67;;;;;;;;;;5032941;28;20456;-79
2023/06/20 03:08:14;;;;;;;3.95;2.70;;;;;;;;;;5054264;28;20029;-78
2023/06/20 03:10:41;;;;;;;3.53;3.03;;;;;;;;;;5036415;28;20392;-78
2023/06/20 03:13:06;;;;;;;3.80;3.00;;;;;;;;;;5036498;28;20044;-79
2023/06/20 03:15:32;;;;;;;3.90;3.22;;;;;;;;;;5036602;28;20057;-79
2023/06/20 03:18:00;;;;;;;4.95;3.08;;;;;;;;;;5036256;28;20037;-79
2023/06/20 03:20:29;;;;;;;3.47;2.85;;;;;;;;;;5036344;28;20029;-79
2023/06/20 03:22:55;;;;;;;4.18;2.90;;;;;;;;;;5036135;28;20476;-78
2023/06/20 03:25:20;;;;;;;4.30;3.08;;;;;;;;;;5036078;28;20036;-79
2023/06/20 03:27:45;;;;;;;5.18;3.03;;;;;;;;;;5035920;28;20028;-79
2023/06/20 03:30:11;;;;;;;4.53;3.13;;;;;;;;;;5053819;28;20033;-79
2023/06/20 03:32:37;;;;;;;3.47;3.10;;;;;;;;;;5053409;28;20032;-78
2023/06/20 03:35:04;;;;;;;3.58;3.10;;;;;;;;;;5053216;28;20170;-78
2023/06/20 03:37:29;;;;;;;4.03;3.22;;;;;;;;;;5053558;28;20024;-78
2023/06/20 03:39:55;;;;;;;5.03;3.28;;;;;;;;;;5036031;28;20463;-79
2023/06/20 03:42:20;;;;;;;5.18;3.05;;;;;;;;;;5053332;28;20033;-79
2023/06/20 03:44:46;;;;;;;3.85;3.08;;;;;;;;;;5035504;28;20024;-79
2023/06/20 03:47:11;;;;;;;3.67;3.08;;;;;;;;;;5053324;28;20036;-79
2023/06/20 03:49:37;;;;;;;3.50;3.20;;;;;;;;;;5019209;28;20041;-79
2023/06/20 03:52:02;;;;;;;5.22;2.92;;;;;;;;;;5067565;28;20055;-79
2023/06/20 03:54:28;;;;;;;4.53;3.15;;;;;;;;;;5073023;28;20116;-79
2023/06/20 03:56:53;;;;;;;3.60;3.13;;;;;;;;;;5073091;28;20067;-78
2023/06/20 03:59:18;;;;;;;3.70;3.10;;;;;;;;;;5055259;28;20456;-78
2023/06/20 04:01:44;;;;;;;4.57;3.17;;;;;;;;;;5055362;28;20039;-79
2023/06/20 04:04:09;;;;;;;4.43;3.25;;;;;;;;;;5073411;28;20391;-78
2023/06/20 04:06:35;;;;;;;3.60;2.85;;;;;;;;;;5022219;28;20040;-78
2023/06/20 04:09:00;;;;;;;3.08;2.78;;;;;;;;;;5054518;28;20140;-79
2023/06/20 04:11:26;;;;;;;4.00;3.20;;;;;;;;;;5038716;28;20115;-79
2023/06/20 04:13:51;;;;;;;3.95;3.17;;;;;;;;;;5054865;28;20047;-78
2023/06/20 04:16:17;;;;;;;4.43;2.97;;;;;;;;;;5055143;28;20024;-78
2023/06/20 04:18:42;;;;;;;4.18;3.22;;;;;;;;;;5074137;28;20513;-77
2023/06/20 04:21:07;;;;;;;5.20;3.40;;;;;;;;;;5055111;28;20043;-78
2023/06/20 04:23:33;;;;;;;6.20;3.92;;;;;;;;;;5072948;28;20031;-78
2023/06/20 04:25:59;;;;;;;5.22;3.88;;;;;;;;;;5055158;28;20487;-77
2023/06/20 04:28:24;;;;;;;8.30;4.15;;;;;;;;;;5073244;28;20394;-78
2023/06/20 04:30:51;;;;;;;5.97;3.83;;;;;;;;;;5038711;28;20083;-78
2023/06/20 04:33:16;;;;;;;5.65;3.80;;;;;;;;;;5055214;28;20029;-78
2023/06/20 04:35:42;;;;;;;6.93;3.60;;;;;;;;;;5055435;28;20448;-78
2023/06/20 04:38:07;;;;;;;6.18;3.90;;;;;;;;;;5073047;28;20029;-77
2023/06/20 04:40:32;;;;;;;4.93;3.33;;;;;;;;;;5073350;28;20032;-77
2023/06/20 04:42:58;;;;;;;4.43;3.00;;;;;;;;;;5072927;28;20036;-77
2023/06/20 04:45:23;;;;;;;5.43;3.67;;;;;;;;;;5055044;28;20029;-78
2023/06/20 04:47:52;;;;;;;6.75;3.92;;;;;;;;;;5055078;28;20074;-76
2023/06/20 04:50:18;;;;;;;5.72;3.40;;;;;;;;;;5072667;28;20483;-77
2023/06/20 04:52:44;;;;;;;5.63;4.00;;;;;;;;;;5055578;28;20039;-75
2023/06/20 04:55:10;;;;;;;5.85;4.10;;;;;;;;;;5038957;28;20035;-77
2023/06/20 04:57:35;;;;;;;6.05;4.07;;;;;;;;;;5054881;28;20028;-76
2023/06/20 05:00:02;;;;;;;8.82;4.57;;;;;;;;;;5072842;28;20024;-77
2023/06/20 05:02:28;;;;;;;15.80;6.47;;;;;;;;;;5055147;28;20028;-77
2023/06/20 05:04:54;;;;;;;29.55;11.00;;;;;;;;;;5072898;28;20426;-78
2023/06/20 05:07:21;;;;;;;48.85;11.73;;;;;;;;;;5055192;28;20482;-78
2023/06/20 05:09:47;;;;;;;36.95;12.20;;;;;;;;;;5038814;28;20020;-78
2023/06/20 05:12:12;;;;;;;31.70;11.02;;;;;;;;;;5073022;28;20099;-78
2023/06/20 05:14:38;;;;;;;31.50;11.00;;;;;;;;;;5054786;28;20051;-78
2023/06/20 05:17:03;;;;;;;28.08;9.93;;;;;;;;;;5072885;28;20111;-78
2023/06/20 05:19:29;;;;;;;26.83;10.02;;;;;;;;;;5072856;28;20025;-78
2023/06/20 05:21:54;;;;;;;25.92;10.30;;;;;;;;;;5076402;28;20039;-78
2023/06/20 05:24:19;;;;;;;25.50;9.73;;;;;;;;;;5076195;28;20036;-78
2023/06/20 05:26:45;;;;;;;27.70;8.80;;;;;;;;;;5076433;28;20081;-78
2023/06/20 05:29:10;;;;;;;22.08;9.23;;;;;;;;;;5076413;28;20028;-78
2023/06/20 05:31:40;;;;;;;25.77;8.95;;;;;;;;;;5076302;28;20029;-78
2023/06/20 05:34:05;;;;;;;17.55;7.85;;;;;;;;;;5058113;28;20029;-77
2023/06/20 05:36:31;;;;;;;19.70;8.35;;;;;;;;;;5058372;28;20040;-77
2023/06/20 05:38:58;;;;;;;18.38;8.07;;;;;;;;;;5057953;28;20597;-78
2023/06/20 05:41:27;;;;;;;14.30;6.68;;;;;;;;;;5076064;28;20048;-78
2023/06/20 05:43:52;;;;;;;13.45;6.88;;;;;;;;;;5058099;28;20036;-79
2023/06/20 05:46:17;;;;;;;12.88;6.65;;;;;;;;;;5058044;28;20399;-78
2023/06/20 05:48:43;;;;;;;14.25;6.43;;;;;;;;;;5076413;28;20052;-77
2023/06/20 05:51:15;;;;;;;16.33;6.63;;;;;;;;;;5050747;28;20462;-78
2023/06/20 05:53:41;;;;;;;9.45;5.47;;;;;;;;;;5055978;28;20423;-78
2023/06/20 05:56:10;;;;;;;12.88;5.90;;;;;;;;;;5037700;28;20032;-78
2023/06/20 05:58:36;;;;;;;12.35;6.45;;;;;;;;;;5021190;28;20029;-78
2023/06/20 06:01:03;;;;;;;10.95;5.40;;;;;;;;;;5038119;28;20025;-78
2023/06/20 06:03:29;;;;;;;8.05;5.18;;;;;;;;;;5037590;28;20025;-78
2023/06/20 06:05:55;;;;;;;9.02;5.25;;;;;;;;;;5055567;28;20427;-78
2023/06/20 06:08:20;;;;;;;9.75;5.03;;;;;;;;;;5055657;28;20048;-78
2023/06/20 06:10:46;;;;;;;7.03;4.40;;;;;;;;;;5037912;28;20021;-78
2023/06/20 06:13:11;;;;;;;7.13;5.18;;;;;;;;;;5055313;28;20111;-78
2023/06/20 06:15:37;;;;;;;7.38;4.63;;;;;;;;;;5021326;28;20043;-77
2023/06/20 06:18:03;;;;;;;6.32;4.53;;;;;;;;;;5037485;28;20037;-77
2023/06/20 06:20:29;;;;;;;6.43;4.32;;;;;;;;;;5037540;28;20109;-78
2023/06/20 06:22:55;;;;;;;6.28;4.30;;;;;;;;;;5055608;28;20052;-77
2023/06/20 06:25:20;;;;;;;6.70;4.15;;;;;;;;;;5055570;28;20056;-77
2023/06/20 06:27:46;;;;;;;5.65;4.00;;;;;;;;;;5037362;28;20025;-77
2023/06/20 06:30:14;;;;;;;5.68;4.07;;;;;;;;;;5055375;28;20033;-78
2023/06/20 06:32:40;;;;;;;6.65;3.83;;;;;;;;;;5054454;28;20388;-78
2023/06/20 06:35:07;;;;;;;5.38;3.60;;;;;;;;;;5020871;28;20439;-77
2023/06/20 06:37:33;;;;;;;4.95;3.88;;;;;;;;;;5037024;28;20032;-77
2023/06/20 06:39:58;;;;;;;9.25;4.20;;;;;;;;;;5020564;28;20409;-77
2023/06/20 06:42:24;;;;;;;6.82;3.90;;;;;;;;;;5037285;28;20094;-77
2023/06/20 06:44:50;;;;;;;6.15;3.53;;;;;;;;;;5020541;28;20040;-77
2023/06/20 06:47:15;;;;;;;5.35;3.45;;;;;;;;;;5037125;28;20055;-77
2023/06/20 06:49:40;;;;;;;4.88;3.30;;;;;;;;;;5036901;28;20170;-78
2023/06/20 06:52:06;;;;;;;5.07;3.20;;;;;;;;;;5070108;28;20048;-77
2023/06/20 06:54:31;;;;;;;4.03;3.55;;;;;;;;;;5040189;28;20056;-76
2023/06/20 06:56:57;;;;;;;5.22;3.78;;;;;;;;;;5074623;28;20043;-78
2023/06/20 06:59:22;;;;;;;6.20;3.88;;;;;;;;;;5074875;28;20028;-77
2023/06/20 07:01:47;;;;;;;5.22;3.85;;;;;;;;;;5074687;28;20390;-78
2023/06/20 07:04:14;;;;;;;3.90;3.50;;;;;;;;;;5074354;28;20037;-77
2023/06/20 07:06:40;;;;;;;5.03;3.70;;;;;;;;;;5074736;28;20040;-77
2023/06/20 07:09:06;;;;;;;8.10;3.38;;;;;;;;;;5056527;28;20039;-78
2023/06/20 07:11:31;;;;;;;8.07;3.78;;;;;;;;;;5039537;28;20033;-78
2023/06/20 07:13:57;;;;;;;6.05;3.75;;;;;;;;;;5056219;28;20090;-78
2023/06/20 07:16:22;;;;;;;5.40;3.55;;;;;;;;;;5074204;28;20430;-79
2023/06/20 07:18:48;;;;;;;8.48;3.95;;;;;;;;;;5056756;28;20033;-78
2023/06/20 07:21:13;;;;;;;6.50;4.32;;;;;;;;;;5056274;28;20118;-78
2023/06/20 07:23:39;;;;;;;5.18;3.83;;;;;;;;;;5056118;28;20025;-77
2023/06/20 07:26:04;;;;;;;7.03;4.05;;;;;;;;;;5074073;28;20035;-78
2023/06/20 07:28:29;;;;;;;8.18;3.95;;;;;;;;;;5056004;28;20475;-78
2023/06/20 07:30:55;;;;;;;6.90;4.20;;;;;;;;;;5039737;28;20123;-78
2023/06/20 07:33:20;;;;;;;6.35;4.05;;;;;;;;;;5073829;28;20036;-78
2023/06/20 07:35:46;;;;;;;7.95;4.40;;;;;;;;;;5074070;28;20028;-78
2023/06/20 07:38:11;;;;;;;4.93;3.78;;;;;;;;;;5074033;28;20412;-77
2023/06/20 07:40:40;;;;;;;7.72;4.47;;;;;;;;;;5055973;28;20059;-78
2023/06/20 07:43:05;;;;;;;8.30;4.38;;;;;;;;;;5039059;28;20035;-78
2023/06/20 07:45:31;;;;;;;7.38;4.57;;;;;;;;;;5073035;28;20032;-78
2023/06/20 07:47:56;;;;;;;5.13;3.60;;;;;;;;;;5074202;28;20035;-78
2023/06/20 07:50:21;;;;;;;8.25;4.22;;;;;;;;;;5055493;28;20066;-78
2023/06/20 07:52:47;;;;;;;6.18;4.07;;;;;;;;;;5055586;28;20483;-78
2023/06/20 07:55:12;;;;;;;9.13;4.18;;;;;;;;;;5073721;28;20032;-78
2023/06/20 07:57:37;;;;;;;5.82;4.18;;;;;;;;;;5055436;28;20036;-78
2023/06/20 08:00:07;;;;;;;7.45;4.18;;;;;;;;;;5055833;28;20479;-78
2023/06/20 08:02:33;;;;;;;5.22;4.07;;;;;;;;;;5056421;28;20028;-78
2023/06/20 08:04:58;;;;;;;7.07;3.83;;;;;;;;;;5073459;28;20058;-78
2023/06/20 08:07:24;;;;;;;4.40;3.75;;;;;;;;;;5073771;28;20040;-78
2023/06/20 08:09:49;;;;;;;4.97;4.07;;;;;;;;;;5073280;28;20032;-78
2023/06/20 08:12:14;;;;;;;6.22;3.88;;;;;;;;;;5038728;28;20037;-78
2023/06/20 08:14:40;;;;;;;7.82;4.30;;;;;;;;;;5073745;28;20033;-79
2023/06/20 08:17:05;;;;;;;5.40;4.03;;;;;;;;;;5073450;28;20124;-78
2023/06/20 08:19:31;;;;;;;6.53;3.92;;;;;;;;;;5073617;28;20115;-77
2023/06/20 08:21:56;;;;;;;4.95;3.70;;;;;;;;;;5073190;28;20032;-78
2023/06/20 08:24:21;;;;;;;7.32;3.90;;;;;;;;;;5055713;28;20035;-78
2023/06/20 08:26:47;;;;;;;9.05;3.75;;;;;;;;;;5038773;28;20043;-78
2023/06/20 08:29:12;;;;;;;5.55;3.65;;;;;;;;;;5038549;28;20032;-78
2023/06/20 08:31:38;;;;;;;3.85;3.45;;;;;;;;;;5055064;28;20035;-78
2023/06/20 08:34:04;;;;;;;6.70;4.05;;;;;;;;;;5064922;28;20064;-78
2023/06/20 08:36:30;;;;;;;7.55;3.97;;;;;;;;;;5055310;28;20468;-77
2023/06/20 08:38:56;;;;;;;5.72;4.10;;;;;;;;;;5038812;28;20158;-78
2023/06/20 08:41:24;;;;;;;8.55;4.60;;;;;;;;;;5039608;28;20070;-78
2023/06/20 08:43:50;;;;;;;5.80;3.72;;;;;;;;;;5055764;28;20032;-77
2023/06/20 08:46:15;;;;;;;5.35;3.88;;;;;;;;;;5073361;28;20361;-76
2023/06/20 08:48:41;;;;;;;6.90;4.30;;;;;;;;;;5073607;28;20024;-77
2023/06/20 08:51:07;;;;;;;6.80;4.80;;;;;;;;;;5072980;28;20052;-77
2023/06/20 08:53:33;;;;;;;10.52;4.88;;;;;;;;;;5055702;28;20124;-77
2023/06/20 08:55:59;;;;;;;6.03;4.75;;;;;;;;;;5040644;28;20150;-77
2023/06/20 08:58:24;;;;;;;8.88;4.32;;;;;;;;;;5043191;28;20056;-78
2023/06/20 09:00:50;;;;;;;10.55;4.78;;;;;;;;;;5058926;28;20066;-77
2023/06/20 09:03:15;;;;;;;12.57;5.13;;;;;;;;;;5059307;28;20059;-77
2023/06/20 09:05:42;;;;;;;10.75;4.80;;;;;;;;;;5058989;28;20120;-77
2023/06/20 09:08:12;;;;;;;6.20;4.45;;;;;;;;;;5042249;28;20050;-77
2023/06/20 09:10:39;;;;;;;6.45;4.35;;;;;;;;;;5042245;28;20025;-77
2023/06/20 09:13:06;;;;;;;7.97;4.05;;;;;;;;;;5076873;28;20090;-77
2023/06/20 09:15:33;;;;;;;7.28;4.90;;;;;;;;;;5076857;28;20028;-77
2023/06/20 09:18:00;;;;;;;6.85;4.63;;;;;;;;;;5059332;28;20036;-78
2023/06/20 09:20:28;;;;;;;8.88;4.28;;;;;;;;;;5058365;28;20050;-78
2023/06/20 09:22:54;;;;;;;10.05;5.13;;;;;;;;;;5058669;28;20027;-78
2023/06/20 09:25:25;;;;;;;7.78;4.75;;;;;;;;;;5058390;28;20025;-77
2023/06/20 09:27:51;;;;;;;6.90;4.20;;;;;;;;;;5076498;28;20082;-78
2023/06/20 09:30:17;;;;;;;8.60;4.57;;;;;;;;;;5058401;28;20486;-77
2023/06/20 09:32:43;;;;;;;8.45;4.82;;;;;;;;;;5041573;28;20119;-78
2023/06/20 09:35:18;;;;;;;8.00;5.10;;;;;;;;;;5058329;28;20025;-78
2023/06/20 09:37:48;;;;;;;7.60;4.65;;;;;;;;;;5058117;28;20039;-78
2023/06/20 09:40:19;;;;;;;8.63;4.70;;;;;;;;;;5041566;28;20103;-78
2023/06/20 09:42:46;;;;;;;8.93;4.78;;;;;;;;;;5058291;28;20036;-77
2023/06/20 09:45:14;;;;;;;8.43;4.45;;;;;;;;;;5057950;28;20047;-77
2023/06/20 09:47:41;;;;;;;5.55;4.40;;;;;;;;;;5058161;28;20039;-77
2023/06/20 09:50:16;;;;;;;8.73;4.25;;;;;;;;;;5041412;28;20453;-77
2023/06/20 09:52:58;;;;;;;5.03;3.85;;;;;;;;;;5038320;28;20071;-77
2023/06/20 09:55:24;;;;;;;5.68;3.83;;;;;;;;;;5038125;28;20383;-77
2023/06/20 09:57:51;;;;;;;4.57;3.58;;;;;;;;;;5055885;28;20108;-78
2023/06/20 10:00:17;;;;;;;5.63;3.58;;;;;;;;;;5036855;28;20045;-78
2023/06/20 10:02:47;;;;;;;4.60;3.33;;;;;;;;;;5020641;28;20044;-78
2023/06/20 10:05:14;;;;;;;3.97;3.03;;;;;;;;;;5020451;28;20086;-77
2023/06/20 10:07:44;;;;;;;3.72;2.92;;;;;;;;;;5036070;28;20020;-78
2023/06/20 10:10:14;;;;;;;5.13;2.92;;;;;;;;;;5037043;28;20488;-77
2023/06/20 10:12:41;;;;;;;4.22;2.95;;;;;;;;;;5020310;28;20036;-78
2023/06/20 10:15:08;;;;;;;6.13;2.50;;;;;;;;;;5036879;28;20040;-78
2023/06/20 10:17:35;;;;;;;4.57;2.97;;;;;;;;;;5036887;28;20037;-78
2023/06/20 10:20:00;;;;;;;4.93;3.20;;;;;;;;;;5036929;28;20024;-77
2023/06/20 10:22:34;;;;;;;3.85;3.20;;;;;;;;;;5036774;28;20025;-78
2023/06/20 10:25:14;;;;;;;4.32;3.60;;;;;;;;;;5020215;28;20033;-78
2023/06/20 10:28:22;;;;;;;4.40;3.50;;;;;;;;;;5037209;28;20024;-78
2023/06/20 10:30:54;;;;;;;5.75;4.68;;;;;;;;;;4938353;29;20070;-77
2023/06/20 10:33:35;;;;;;;5.72;4.70;;;;;;;;;;4937976;29;20031;-78
2023/06/20 10:36:11;;;;;;;6.10;5.50;;;;;;;;;;4954206;29;20114;-77
2023/06/20 10:38:57;;;;;;;6.45;5.32;;;;;;;;;;4937960;29;20058;-78
2023/06/20 10:41:27;;;;;;;10.13;8.05;;;;;;;;;;4953665;29;20190;-77
2023/06/20 10:43:53;;;;;;;9.40;8.40;;;;;;;;;;4938028;29;20035;-77
2023/06/20 10:46:34;;;;;;;10.73;8.45;;;;;;;;;;4937835;29;20100;-78
2023/06/20 10:49:00;;;;;;;18.65;16.60;;;;;;;;;;4953765;29;20051;-77
2023/06/20 10:51:26;;;;;;;14.30;11.88;;;;;;;;;;4946812;28;20109;-77
2023/06/20 10:53:51;;;;;;;15.60;11.35;;;;;;;;;;4956881;28;20170;-77
2023/06/20 10:56:26;;;;;;;12.30;10.88;;;;;;;;;;4956873;28;20525;-78
2023/06/20 10:58:52;;;;;;;13.35;11.40;;;;;;;;;;4957151;28;20069;-77
2023/06/20 11:01:18;;;;;;;13.52;11.45;;;;;;;;;;5007415;28;20116;-77
2023/06/20 11:03:45;;;;;;;10.10;9.10;;;;;;;;;;5052594;28;20471;-76
2023/06/20 11:06:14;;;;;;;10.38;9.05;;;;;;;;;;5053990;28;20025;-77
2023/06/20 11:08:45;;;;;;;10.80;9.52;;;;;;;;;;5053690;28;20025;-76
2023/06/20 11:11:11;;;;;;;11.77;9.23;;;;;;;;;;5035789;28;20037;-76
2023/06/20 11:13:42;;;;;;;11.65;9.50;;;;;;;;;;5053732;28;20040;-77
2023/06/20 11:16:16;;;;;;;10.60;9.52;;;;;;;;;;5053286;28;20032;-77
2023/06/20 11:18:42;;;;;;;11.88;10.68;;;;;;;;;;5053807;28;20105;-77
2023/06/20 11:21:08;;;;;;;9.85;8.55;;;;;;;;;;5052477;28;20057;-77
2023/06/20 11:23:34;;;;;;;15.75;13.60;;;;;;;;;;5052371;28;20029;-77
2023/06/20 11:26:00;;;;;;;12.93;11.27;;;;;;;;;;5053365;28;20024;-77
2023/06/20 11:28:26;;;;;;;17.10;15.15;;;;;;;;;;5052107;28;20028;-77
2023/06/20 11:30:51;;;;;;;19.13;15.70;;;;;;;;;;5035739;28;20119;-77
2023/06/20 11:33:17;;;;;;;17.33;14.68;;;;;;;;;;5035513;28;20100;-77
2023/06/20 11:35:56;;;;;;;16.75;14.52;;;;;;;;;;5052709;28;20037;-78
2023/06/20 11:38:24;;;;;;;14.25;12.73;;;;;;;;;;5053305;28;20033;-77
2023/06/20 11:41:04;;;;;;;13.15;11.75;;;;;;;;;;5053981;28;20052;-77
2023/06/20 11:43:37;;;;;;;15.00;12.93;;;;;;;;;;5037140;28;20021;-77
2023/06/20 11:46:02;;;;;;;16.80;12.30;;;;;;;;;;5035977;28;20025;-78
2023/06/20 11:48:29;;;;;;;14.43;12.57;;;;;;;;;;5053602;28;20036;-78
2023/06/20 11:51:04;;;;;;;13.52;12.05;;;;;;;;;;5055684;28;20068;-78
2023/06/20 11:53:35;;;;;;;16.80;11.80;;;;;;;;;;5056328;28;20020;-77
2023/06/20 11:56:03;;;;;;;14.13;11.52;;;;;;;;;;5055869;28;20372;-78
2023/06/20 11:58:39;;;;;;;13.90;11.80;;;;;;;;;;5056217;28;20430;-77
2023/06/20 12:01:15;;;;;;;12.18;10.90;;;;;;;;;;5055588;28;20016;-78
2023/06/20 12:03:41;;;;;;;12.57;11.23;;;;;;;;;;5055579;28;20028;-77
2023/06/20 12:06:29;;;;;;;15.15;10.95;;;;;;;;;;5039077;28;20024;-77
2023/06/20 12:08:55;;;;;;;13.10;11.18;;;;;;;;;;5055753;28;20020;-77
2023/06/20 12:11:20;;;;;;;12.20;10.35;;;;;;;;;;5073478;28;20028;-76
2023/06/20 12:13:47;;;;;;;13.23;10.57;;;;;;;;;;5073400;28;20475;-76
2023/06/20 12:16:13;;;;;;;11.07;9.55;;;;;;;;;;5055398;28;20024;-77
2023/06/20 12:18:39;;;;;;;11.68;10.25;;;;;;;;;;5039835;28;20179;-77
2023/06/20 12:21:04;;;;;;;10.82;9.68;;;;;;;;;;5073533;28;20475;-77
2023/06/20 12:23:30;;;;;;;10.40;9.35;;;;;;;;;;5056420;28;20077;-77
2023/06/20 12:25:56;;;;;;;10.75;9.63;;;;;;;;;;5055863;28;20483;-77
2023/06/20 12:28:22;;;;;;;10.13;9.13;;;;;;;;;;5056375;28;20135;-77
2023/06/20 12:30:47;;;;;;;11.77;10.00;;;;;;;;;;5075100;28;20106;-77
2023/06/20 12:33:13;;;;;;;10.88;9.38;;;;;;;;;;5077538;28;20024;-78
2023/06/20 12:35:38;;;;;;;11.10;9.85;;;;;;;;;;5077339;28;20459;-77
2023/06/20 12:38:04;;;;;;;10.18;9.18;;;;;;;;;;5059511;28;20032;-77
2023/06/20 12:40:29;;;;;;;12.25;8.88;;;;;;;;;;5078486;28;20375;-76
2023/06/20 12:42:54;;;;;;;9.43;8.45;;;;;;;;;;5059793;28;20052;-77
2023/06/20 12:45:20;;;;;;;11.15;8.40;;;;;;;;;;5059482;28;20028;-77
2023/06/20 12:47:45;;;;;;;12.20;8.93;;;;;;;;;;5060241;28;20082;-77
2023/06/20 12:50:11;;;;;;;9.70;8.70;;;;;;;;;;5059959;28;20060;-77
2023/06/20 12:52:36;;;;;;;10.52;8.98;;;;;;;;;;5059292;28;20057;-77
2023/06/20 12:55:05;;;;;;;11.57;8.90;;;;;;;;;;5077878;28;20483;-77
2023/06/20 12:57:32;;;;;;;10.07;8.07;;;;;;;;;;5077436;28;20032;-77
2023/06/20 12:59:58;;;;;;;10.68;8.55;;;;;;;;;;5060056;28;20028;-77
2023/06/20 13:02:24;;;;;;;9.23;7.90;;;;;;;;;;5077125;28;20024;-78
2023/06/20 13:04:53;;;;;;;8.25;7.45;;;;;;;;;;5059740;28;20186;-77
2023/06/20 13:07:20;;;;;;;7.85;7.03;;;;;;;;;;5043033;28;20032;-78
2023/06/20 13:09:47;;;;;;;8.50;7.70;;;;;;;;;;5059088;28;20020;-78
2023/06/20 13:12:13;;;;;;;9.40;7.82;;;;;;;;;;5059049;28;20031;-77
2023/06/20 13:14:39;;;;;;;10.45;7.43;;;;;;;;;;5058735;28;20405;-77
2023/06/20 13:17:04;;;;;;;7.75;6.93;;;;;;;;;;5076831;28;20379;-77
2023/06/20 13:19:32;;;;;;;8.23;7.43;;;;;;;;;;5076722;28;20080;-77
2023/06/20 13:21:58;;;;;;;8.20;7.15;;;;;;;;;;5059170;28;20059;-77
2023/06/20 13:24:24;;;;;;;8.63;7.20;;;;;;;;;;5076653;28;20032;-77
2023/06/20 13:26:49;;;;;;;7.65;6.78;;;;;;;;;;5075942;28;20035;-77
2023/06/20 13:29:14;;;;;;;7.57;6.78;;;;;;;;;;5076183;28;20128;-77
2023/06/20 13:31:46;;;;;;;7.80;6.40;;;;;;;;;;5041522;28;20060;-75
2023/06/20 13:34:12;;;;;;;6.90;5.68;;;;;;;;;;5058232;28;20028;-77
2023/06/20 13:36:38;;;;;;;7.60;6.85;;;;;;;;;;5076182;28;20453;-78
2023/06/20 13:39:03;;;;;;;8.07;6.50;;;;;;;;;;5075970;28;20106;-78
2023/06/20 13:41:29;;;;;;;7.32;6.35;;;;;;;;;;5057826;28;20029;-77
2023/06/20 13:43:54;;;;;;;6.45;5.85;;;;;;;;;;5075689;28;20043;-78
2023/06/20 13:46:20;;;;;;;6.97;6.10;;;;;;;;;;5075909;28;20479;-78
2023/06/20 13:48:47;;;;;;;7.43;5.50;;;;;;;;;;5076341;28;20051;-79
2023/06/20 13:51:14;;;;;;;7.07;6.15;;;;;;;;;;5075806;28;20044;-78
2023/06/20 13:53:40;;;;;;;5.90;5.35;;;;;;;;;;5076184;28;20112;-78
2023/06/20 13:56:06;;;;;;;25.30;5.90;;;;;;;;;;5041236;28;20171;-78
2023/06/20 13:58:31;;;;;;;6.28;5.68;;;;;;;;;;5024713;28;20051;-78
2023/06/20 14:00:56;;;;;;;8.07;5.78;;;;;;;;;;5075972;28;20032;-78
2023/06/20 14:03:22;;;;;;;5.95;5.28;;;;;;;;;;5057640;28;20479;-78
2023/06/20 14:05:47;;;;;;;5.45;4.90;;;;;;;;;;5075916;28;20028;-78
2023/06/20 14:08:13;;;;;;;6.53;5.47;;;;;;;;;;5075646;28;20387;-78
2023/06/20 14:10:39;;;;;;;6.45;5.28;;;;;;;;;;5057600;28;20028;-78
2023/06/20 14:13:04;;;;;;;5.57;5.00;;;;;;;;;;5075454;28;20029;-78
2023/06/20 14:15:30;;;;;;;5.72;4.80;;;;;;;;;;5057308;28;20063;-78
2023/06/20 14:17:57;;;;;;;5.70;4.55;;;;;;;;;;5057962;28;20043;-78
2023/06/20 14:20:23;;;;;;;5.30;4.63;;;;;;;;;;5075538;28;20028;-78
2023/06/20 14:22:49;;;;;;;6.35;4.30;;;;;;;;;;5057432;28;20032;-77
2023/06/20 14:25:14;;;;;;;4.68;4.20;;;;;;;;;;5075421;28;20056;-78
2023/06/20 14:27:39;;;;;;;7.30;4.25;;;;;;;;;;5057389;28;20025;-78
2023/06/20 14:30:06;;;;;;;5.03;4.20;;;;;;;;;;5057065;28;20085;-78
2023/06/20 14:32:31;;;;;;;4.25;3.85;;;;;;;;;;5057037;28;20028;-77
2023/06/20 14:34:56;;;;;;;4.72;4.07;;;;;;;;;;5057165;28;20054;-77
2023/06/20 14:37:23;;;;;;;4.53;3.70;;;;;;;;;;5057149;28;20036;-77
2023/06/20 14:39:48;;;;;;;4.70;3.75;;;;;;;;;;5056876;28;20501;-78